Terminal Aerodrome Forecast
Issued by NWS

Home | Current Version | Previous Version | Text Only | Print | Product List | Glossary On
Versions: 1 2 3 4 5 6 7 8 9 10 11 12 13 14 15 16 17
197
FTUS42 KMHX 231334 AAA
TAFPGV
TAF AMD
KPGV 231334Z 2314/2412 19015G25KT 5SM -SHRA BR BKN008 OVC015
     FM231500 21015G25KT P6SM VCSH BKN015
     FM232000 24015G25KT P6SM SCT025
     FM232200 25015KT P6SM SKC
     FM240000 28005KT P6SM SKC
      AMD LTD TO CLD VIS AND WIND=

USA.gov is the U.S. government's official web portal to all federal, state and local government web resources and services.